sensor_id;sensor_type;location;lat;lon;timestamp;P1;durP1;ratioP1;P2;durP2;ratioP2
68821;SDS011;55834;50.870;4.606;2023-12-22T00:00:55;7.40;;;2.45;;
68821;SDS011;55834;50.870;4.606;2023-12-22T00:03:21;10.50;;;2.47;;
68821;SDS011;55834;50.870;4.606;2023-12-22T00:05:46;6.60;;;1.30;;
68821;SDS011;55834;50.870;4.606;2023-12-22T00:08:12;8.57;;;2.33;;
68821;SDS011;55834;50.870;4.606;2023-12-22T00:10:37;15.47;;;2.97;;
68821;SDS011;55834;50.870;4.606;2023-12-22T00:13:02;7.57;;;1.83;;
68821;SDS011;55834;50.870;4.606;2023-12-22T00:15:28;11.30;;;2.30;;
68821;SDS011;55834;50.870;4.606;2023-12-22T00:17:53;6.38;;;1.92;;
68821;SDS011;55834;50.870;4.606;2023-12-22T00:20:19;11.13;;;3.25;;
68821;SDS011;55834;50.870;4.606;2023-12-22T00:22:44;10.43;;;2.30;;
68821;SDS011;55834;50.870;4.606;2023-12-22T00:25:10;11.13;;;3.00;;
68821;SDS011;55834;50.870;4.606;2023-12-22T00:27:35;7.03;;;1.88;;
68821;SDS011;55834;50.870;4.606;2023-12-22T00:30:01;7.47;;;1.67;;
68821;SDS011;55834;50.870;4.606;2023-12-22T00:32:26;4.13;;;1.20;;
68821;SDS011;55834;50.870;4.606;2023-12-22T00:34:52;7.10;;;2.08;;
68821;SDS011;55834;50.870;4.606;2023-12-22T00:37:17;7.93;;;2.17;;
68821;SDS011;55834;50.870;4.606;2023-12-22T00:39:43;11.88;;;2.20;;
68821;SDS011;55834;50.870;4.606;2023-12-22T00:42:08;4.00;;;1.10;;
68821;SDS011;55834;50.870;4.606;2023-12-22T00:44:34;9.98;;;2.25;;
68821;SDS011;55834;50.870;4.606;2023-12-22T00:46:59;9.83;;;2.07;;
68821;SDS011;55834;50.870;4.606;2023-12-22T00:49:24;7.00;;;2.00;;
68821;SDS011;55834;50.870;4.606;2023-12-22T00:51:53;4.32;;;0.90;;
68821;SDS011;55834;50.870;4.606;2023-12-22T00:54:18;12.30;;;3.10;;
68821;SDS011;55834;50.870;4.606;2023-12-22T00:56:44;4.83;;;1.27;;
68821;SDS011;55834;50.870;4.606;2023-12-22T00:59:09;6.47;;;0.90;;
68821;SDS011;55834;50.870;4.606;2023-12-22T01:01:34;9.70;;;1.73;;
68821;SDS011;55834;50.870;4.606;2023-12-22T01:04:00;12.45;;;2.75;;
68821;SDS011;55834;50.870;4.606;2023-12-22T01:06:25;11.65;;;1.92;;
68821;SDS011;55834;50.870;4.606;2023-12-22T01:08:51;9.60;;;2.20;;
68821;SDS011;55834;50.870;4.606;2023-12-22T01:11:16;11.07;;;1.80;;
68821;SDS011;55834;50.870;4.606;2023-12-22T01:13:42;9.98;;;2.28;;
68821;SDS011;55834;50.870;4.606;2023-12-22T01:16:08;7.90;;;2.03;;
68821;SDS011;55834;50.870;4.606;2023-12-22T01:18:34;9.75;;;2.30;;
68821;SDS011;55834;50.870;4.606;2023-12-22T01:20:59;10.48;;;1.98;;
68821;SDS011;55834;50.870;4.606;2023-12-22T01:23:24;12.60;;;2.28;;
68821;SDS011;55834;50.870;4.606;2023-12-22T01:25:50;8.27;;;1.60;;
68821;SDS011;55834;50.870;4.606;2023-12-22T01:28:16;11.00;;;1.77;;
68821;SDS011;55834;50.870;4.606;2023-12-22T01:30:42;11.60;;;1.77;;
68821;SDS011;55834;50.870;4.606;2023-12-22T01:33:07;9.82;;;3.10;;
68821;SDS011;55834;50.870;4.606;2023-12-22T01:35:32;8.33;;;1.93;;
68821;SDS011;55834;50.870;4.606;2023-12-22T01:37:58;10.40;;;1.67;;
68821;SDS011;55834;50.870;4.606;2023-12-22T01:40:23;10.95;;;1.83;;
68821;SDS011;55834;50.870;4.606;2023-12-22T01:42:49;12.32;;;2.78;;
68821;SDS011;55834;50.870;4.606;2023-12-22T01:45:14;7.77;;;3.13;;
68821;SDS011;55834;50.870;4.606;2023-12-22T01:47:39;11.32;;;1.98;;
68821;SDS011;55834;50.870;4.606;2023-12-22T01:50:06;10.32;;;1.92;;
68821;SDS011;55834;50.870;4.606;2023-12-22T01:52:35;14.35;;;2.85;;
68821;SDS011;55834;50.870;4.606;2023-12-22T01:55:02;10.07;;;1.92;;
68821;SDS011;55834;50.870;4.606;2023-12-22T01:57:27;13.48;;;3.05;;
68821;SDS011;55834;50.870;4.606;2023-12-22T01:59:54;13.18;;;2.47;;
68821;SDS011;55834;50.870;4.606;2023-12-22T02:02:19;4.88;;;1.55;;
68821;SDS011;55834;50.870;4.606;2023-12-22T02:04:45;10.95;;;2.53;;
68821;SDS011;55834;50.870;4.606;2023-12-22T02:07:12;12.05;;;1.75;;
68821;SDS011;55834;50.870;4.606;2023-12-22T02:09:37;10.90;;;2.65;;
68821;SDS011;55834;50.870;4.606;2023-12-22T02:12:03;9.57;;;2.15;;
68821;SDS011;55834;50.870;4.606;2023-12-22T02:14:28;11.27;;;1.48;;
68821;SDS011;55834;50.870;4.606;2023-12-22T02:17:01;9.50;;;2.15;;
68821;SDS011;55834;50.870;4.606;2023-12-22T02:19:43;6.50;;;2.35;;
68821;SDS011;55834;50.870;4.606;2023-12-22T02:22:11;14.07;;;3.22;;
68821;SDS011;55834;50.870;4.606;2023-12-22T02:24:38;12.50;;;2.05;;
68821;SDS011;55834;50.870;4.606;2023-12-22T02:27:05;10.95;;;2.17;;
68821;SDS011;55834;50.870;4.606;2023-12-22T02:29:53;10.93;;;2.72;;
68821;SDS011;55834;50.870;4.606;2023-12-22T02:32:32;11.35;;;1.85;;
68821;SDS011;55834;50.870;4.606;2023-12-22T02:35:01;9.48;;;2.75;;
68821;SDS011;55834;50.870;4.606;2023-12-22T02:37:29;11.63;;;2.10;;
68821;SDS011;55834;50.870;4.606;2023-12-22T02:39:57;11.32;;;3.45;;
68821;SDS011;55834;50.870;4.606;2023-12-22T02:42:24;15.07;;;2.28;;
68821;SDS011;55834;50.870;4.606;2023-12-22T02:44:55;12.50;;;1.60;;
68821;SDS011;55834;50.870;4.606;2023-12-22T02:47:23;7.55;;;1.80;;
68821;SDS011;55834;50.870;4.606;2023-12-22T02:49:49;6.40;;;2.38;;
68821;SDS011;55834;50.870;4.606;2023-12-22T02:52:14;8.80;;;1.88;;
68821;SDS011;55834;50.870;4.606;2023-12-22T02:54:40;9.07;;;2.67;;
68821;SDS011;55834;50.870;4.606;2023-12-22T02:57:09;11.82;;;1.83;;
68821;SDS011;55834;50.870;4.606;2023-12-22T02:59:35;13.38;;;2.40;;
68821;SDS011;55834;50.870;4.606;2023-12-22T03:02:02;5.55;;;1.80;;
68821;SDS011;55834;50.870;4.606;2023-12-22T03:04:27;5.63;;;1.80;;
68821;SDS011;55834;50.870;4.606;2023-12-22T03:06:53;10.37;;;1.97;;
68821;SDS011;55834;50.870;4.606;2023-12-22T03:09:18;6.83;;;1.17;;
68821;SDS011;55834;50.870;4.606;2023-12-22T03:11:43;7.07;;;1.67;;
68821;SDS011;55834;50.870;4.606;2023-12-22T03:14:09;8.15;;;1.50;;
68821;SDS011;55834;50.870;4.606;2023-12-22T03:16:35;3.78;;;1.35;;
68821;SDS011;55834;50.870;4.606;2023-12-22T03:19:00;6.32;;;1.20;;
68821;SDS011;55834;50.870;4.606;2023-12-22T03:21:26;5.17;;;1.57;;
68821;SDS011;55834;50.870;4.606;2023-12-22T03:23:51;4.05;;;1.50;;
68821;SDS011;55834;50.870;4.606;2023-12-22T03:26:17;9.57;;;1.95;;
68821;SDS011;55834;50.870;4.606;2023-12-22T03:28:42;7.57;;;1.58;;
68821;SDS011;55834;50.870;4.606;2023-12-22T03:31:08;5.07;;;1.15;;
68821;SDS011;55834;50.870;4.606;2023-12-22T03:33:33;10.18;;;1.67;;
68821;SDS011;55834;50.870;4.606;2023-12-22T03:35:59;10.40;;;1.98;;
68821;SDS011;55834;50.870;4.606;2023-12-22T03:38:24;10.95;;;3.03;;
68821;SDS011;55834;50.870;4.606;2023-12-22T03:40:50;7.45;;;1.88;;
68821;SDS011;55834;50.870;4.606;2023-12-22T03:43:15;8.53;;;2.20;;
68821;SDS011;55834;50.870;4.606;2023-12-22T03:45:40;9.35;;;2.13;;
68821;SDS011;55834;50.870;4.606;2023-12-22T03:48:06;11.97;;;2.03;;
68821;SDS011;55834;50.870;4.606;2023-12-22T03:50:31;9.00;;;1.63;;
68821;SDS011;55834;50.870;4.606;2023-12-22T03:52:57;10.20;;;3.10;;
68821;SDS011;55834;50.870;4.606;2023-12-22T03:55:22;12.57;;;3.00;;
68821;SDS011;55834;50.870;4.606;2023-12-22T03:57:47;8.18;;;2.63;;
68821;SDS011;55834;50.870;4.606;2023-12-22T04:00:13;12.85;;;2.78;;
68821;SDS011;55834;50.870;4.606;2023-12-22T04:02:39;10.95;;;2.08;;
68821;SDS011;55834;50.870;4.606;2023-12-22T04:05:05;10.45;;;2.05;;
68821;SDS011;55834;50.870;4.606;2023-12-22T04:07:30;8.00;;;2.13;;
68821;SDS011;55834;50.870;4.606;2023-12-22T04:09:56;7.95;;;1.50;;
68821;SDS011;55834;50.870;4.606;2023-12-22T04:12:21;8.03;;;1.80;;
68821;SDS011;55834;50.870;4.606;2023-12-22T04:14:47;5.72;;;1.77;;
68821;SDS011;55834;50.870;4.606;2023-12-22T04:17:12;11.70;;;3.23;;
68821;SDS011;55834;50.870;4.606;2023-12-22T04:19:37;8.63;;;2.20;;
68821;SDS011;55834;50.870;4.606;2023-12-22T04:22:03;7.93;;;1.38;;
68821;SDS011;55834;50.870;4.606;2023-12-22T04:24:28;7.15;;;1.67;;
68821;SDS011;55834;50.870;4.606;2023-12-22T04:26:54;5.93;;;2.00;;
68821;SDS011;55834;50.870;4.606;2023-12-22T04:29:19;5.45;;;1.80;;
68821;SDS011;55834;50.870;4.606;2023-12-22T04:31:44;13.37;;;2.40;;
68821;SDS011;55834;50.870;4.606;2023-12-22T04:34:11;16.83;;;3.47;;
68821;SDS011;55834;50.870;4.606;2023-12-22T04:36:38;12.50;;;3.47;;
68821;SDS011;55834;50.870;4.606;2023-12-22T04:39:04;10.98;;;2.97;;
68821;SDS011;55834;50.870;4.606;2023-12-22T04:41:29;15.40;;;1.67;;
68821;SDS011;55834;50.870;4.606;2023-12-22T04:43:55;9.30;;;1.90;;
68821;SDS011;55834;50.870;4.606;2023-12-22T04:46:20;9.20;;;2.53;;
68821;SDS011;55834;50.870;4.606;2023-12-22T04:48:46;12.40;;;2.42;;
68821;SDS011;55834;50.870;4.606;2023-12-22T04:51:11;13.10;;;2.70;;
68821;SDS011;55834;50.870;4.606;2023-12-22T04:53:36;8.57;;;2.27;;
68821;SDS011;55834;50.870;4.606;2023-12-22T04:56:02;8.10;;;3.08;;
68821;SDS011;55834;50.870;4.606;2023-12-22T04:58:28;9.65;;;2.20;;
68821;SDS011;55834;50.870;4.606;2023-12-22T05:00:53;12.60;;;2.85;;
68821;SDS011;55834;50.870;4.606;2023-12-22T05:03:18;12.63;;;2.47;;
68821;SDS011;55834;50.870;4.606;2023-12-22T05:05:44;11.97;;;4.07;;
68821;SDS011;55834;50.870;4.606;2023-12-22T05:08:09;11.43;;;3.20;;
68821;SDS011;55834;50.870;4.606;2023-12-22T05:10:34;12.23;;;2.23;;
68821;SDS011;55834;50.870;4.606;2023-12-22T05:13:00;14.97;;;2.57;;
68821;SDS011;55834;50.870;4.606;2023-12-22T05:15:25;14.07;;;3.03;;
68821;SDS011;55834;50.870;4.606;2023-12-22T05:17:51;16.83;;;4.05;;
68821;SDS011;55834;50.870;4.606;2023-12-22T05:20:16;13.83;;;3.77;;
68821;SDS011;55834;50.870;4.606;2023-12-22T05:22:41;11.77;;;3.30;;
68821;SDS011;55834;50.870;4.606;2023-12-22T05:25:07;13.00;;;2.67;;
68821;SDS011;55834;50.870;4.606;2023-12-22T05:27:34;13.02;;;3.28;;
68821;SDS011;55834;50.870;4.606;2023-12-22T05:30:00;13.13;;;2.30;;
68821;SDS011;55834;50.870;4.606;2023-12-22T05:32:28;7.55;;;1.67;;
68821;SDS011;55834;50.870;4.606;2023-12-22T05:34:53;15.47;;;3.20;;
68821;SDS011;55834;50.870;4.606;2023-12-22T05:37:19;12.83;;;2.60;;
68821;SDS011;55834;50.870;4.606;2023-12-22T05:39:44;17.02;;;3.40;;
68821;SDS011;55834;50.870;4.606;2023-12-22T05:42:10;15.55;;;3.15;;
68821;SDS011;55834;50.870;4.606;2023-12-22T05:44:36;15.45;;;3.83;;
68821;SDS011;55834;50.870;4.606;2023-12-22T05:47:03;15.07;;;2.97;;
68821;SDS011;55834;50.870;4.606;2023-12-22T05:49:29;14.73;;;2.58;;
68821;SDS011;55834;50.870;4.606;2023-12-22T05:51:55;13.93;;;2.58;;
68821;SDS011;55834;50.870;4.606;2023-12-22T05:54:21;11.35;;;2.42;;
68821;SDS011;55834;50.870;4.606;2023-12-22T05:56:46;20.13;;;5.00;;
68821;SDS011;55834;50.870;4.606;2023-12-22T05:59:12;15.90;;;3.38;;
68821;SDS011;55834;50.870;4.606;2023-12-22T06:01:37;13.93;;;2.83;;
68821;SDS011;55834;50.870;4.606;2023-12-22T06:04:02;9.30;;;2.60;;
68821;SDS011;55834;50.870;4.606;2023-12-22T06:06:28;13.25;;;3.58;;
68821;SDS011;55834;50.870;4.606;2023-12-22T06:08:55;10.77;;;2.25;;
68821;SDS011;55834;50.870;4.606;2023-12-22T06:11:20;11.70;;;2.88;;
68821;SDS011;55834;50.870;4.606;2023-12-22T06:13:47;14.55;;;3.63;;
68821;SDS011;55834;50.870;4.606;2023-12-22T06:16:13;10.02;;;2.58;;
68821;SDS011;55834;50.870;4.606;2023-12-22T06:18:39;12.10;;;2.42;;
68821;SDS011;55834;50.870;4.606;2023-12-22T06:21:05;16.58;;;2.72;;
68821;SDS011;55834;50.870;4.606;2023-12-22T06:23:30;12.57;;;3.63;;
68821;SDS011;55834;50.870;4.606;2023-12-22T06:25:56;11.63;;;3.15;;
68821;SDS011;55834;50.870;4.606;2023-12-22T06:28:21;8.40;;;3.13;;
68821;SDS011;55834;50.870;4.606;2023-12-22T06:30:46;10.73;;;3.53;;
68821;SDS011;55834;50.870;4.606;2023-12-22T06:33:12;10.95;;;2.92;;
68821;SDS011;55834;50.870;4.606;2023-12-22T06:35:38;18.08;;;2.40;;
68821;SDS011;55834;50.870;4.606;2023-12-22T06:38:05;12.02;;;2.45;;
68821;SDS011;55834;50.870;4.606;2023-12-22T06:40:31;11.02;;;2.83;;
68821;SDS011;55834;50.870;4.606;2023-12-22T06:42:57;11.25;;;1.90;;
68821;SDS011;55834;50.870;4.606;2023-12-22T06:45:23;6.82;;;2.17;;
68821;SDS011;55834;50.870;4.606;2023-12-22T06:47:48;11.88;;;1.75;;
68821;SDS011;55834;50.870;4.606;2023-12-22T06:50:13;7.67;;;1.93;;
68821;SDS011;55834;50.870;4.606;2023-12-22T06:52:39;11.00;;;1.73;;
68821;SDS011;55834;50.870;4.606;2023-12-22T06:55:04;10.35;;;2.08;;
68821;SDS011;55834;50.870;4.606;2023-12-22T06:57:30;10.85;;;2.42;;
68821;SDS011;55834;50.870;4.606;2023-12-22T06:59:55;12.90;;;2.05;;
68821;SDS011;55834;50.870;4.606;2023-12-22T07:02:23;8.50;;;1.65;;
68821;SDS011;55834;50.870;4.606;2023-12-22T07:07:48;8.25;;;1.58;;
68821;SDS011;55834;50.870;4.606;2023-12-22T07:10:13;6.70;;;1.45;;
68821;SDS011;55834;50.870;4.606;2023-12-22T07:12:38;8.07;;;2.30;;
68821;SDS011;55834;50.870;4.606;2023-12-22T07:15:05;11.40;;;1.88;;
68821;SDS011;55834;50.870;4.606;2023-12-22T07:17:32;4.50;;;1.80;;
68821;SDS011;55834;50.870;4.606;2023-12-22T07:19:57;6.07;;;1.70;;
68821;SDS011;55834;50.870;4.606;2023-12-22T07:22:23;3.72;;;1.42;;
68821;SDS011;55834;50.870;4.606;2023-12-22T07:24:48;7.87;;;1.60;;
68821;SDS011;55834;50.870;4.606;2023-12-22T07:27:15;6.25;;;1.67;;
68821;SDS011;55834;50.870;4.606;2023-12-22T07:29:40;5.10;;;1.60;;
68821;SDS011;55834;50.870;4.606;2023-12-22T07:32:05;6.50;;;1.60;;
68821;SDS011;55834;50.870;4.606;2023-12-22T07:34:31;3.42;;;1.23;;
68821;SDS011;55834;50.870;4.606;2023-12-22T07:36:56;6.53;;;1.50;;
68821;SDS011;55834;50.870;4.606;2023-12-22T07:39:22;5.13;;;0.90;;
68821;SDS011;55834;50.870;4.606;2023-12-22T07:41:47;6.05;;;1.58;;
68821;SDS011;55834;50.870;4.606;2023-12-22T07:44:13;7.35;;;1.50;;
68821;SDS011;55834;50.870;4.606;2023-12-22T07:46:39;4.65;;;0.98;;
68821;SDS011;55834;50.870;4.606;2023-12-22T07:49:04;3.35;;;1.50;;
68821;SDS011;55834;50.870;4.606;2023-12-22T07:51:30;7.90;;;1.67;;
68821;SDS011;55834;50.870;4.606;2023-12-22T07:53:55;5.27;;;2.00;;
68821;SDS011;55834;50.870;4.606;2023-12-22T07:56:21;4.30;;;1.50;;
68821;SDS011;55834;50.870;4.606;2023-12-22T07:58:46;5.30;;;1.70;;
68821;SDS011;55834;50.870;4.606;2023-12-22T08:01:11;2.97;;;1.17;;
68821;SDS011;55834;50.870;4.606;2023-12-22T08:03:37;2.70;;;1.03;;
68821;SDS011;55834;50.870;4.606;2023-12-22T08:06:02;5.27;;;1.40;;
68821;SDS011;55834;50.870;4.606;2023-12-22T08:08:28;4.38;;;1.38;;
68821;SDS011;55834;50.870;4.606;2023-12-22T08:10:54;3.45;;;1.63;;
68821;SDS011;55834;50.870;4.606;2023-12-22T08:13:19;3.70;;;1.20;;
68821;SDS011;55834;50.870;4.606;2023-12-22T08:15:45;1.48;;;1.15;;
68821;SDS011;55834;50.870;4.606;2023-12-22T08:18:10;1.42;;;1.00;;
68821;SDS011;55834;50.870;4.606;2023-12-22T08:20:36;2.15;;;1.10;;
68821;SDS011;55834;50.870;4.606;2023-12-22T08:23:02;2.80;;;1.30;;
68821;SDS011;55834;50.870;4.606;2023-12-22T08:25:27;3.90;;;1.50;;
68821;SDS011;55834;50.870;4.606;2023-12-22T08:27:53;2.72;;;1.10;;
68821;SDS011;55834;50.870;4.606;2023-12-22T08:30:18;2.87;;;1.10;;
68821;SDS011;55834;50.870;4.606;2023-12-22T08:32:44;1.77;;;1.08;;
68821;SDS011;55834;50.870;4.606;2023-12-22T08:35:10;2.90;;;0.90;;
68821;SDS011;55834;50.870;4.606;2023-12-22T08:37:35;3.42;;;1.05;;
68821;SDS011;55834;50.870;4.606;2023-12-22T08:40:02;3.50;;;1.33;;
68821;SDS011;55834;50.870;4.606;2023-12-22T08:42:28;1.85;;;1.42;;
68821;SDS011;55834;50.870;4.606;2023-12-22T08:44:55;2.05;;;1.50;;
68821;SDS011;55834;50.870;4.606;2023-12-22T08:47:20;2.63;;;1.60;;
68821;SDS011;55834;50.870;4.606;2023-12-22T08:49:46;1.23;;;1.10;;
68821;SDS011;55834;50.870;4.606;2023-12-22T08:52:11;3.75;;;1.50;;
68821;SDS011;55834;50.870;4.606;2023-12-22T08:54:38;2.63;;;1.67;;
68821;SDS011;55834;50.870;4.606;2023-12-22T08:57:03;3.78;;;1.77;;
68821;SDS011;55834;50.870;4.606;2023-12-22T08:59:29;1.35;;;1.15;;
68821;SDS011;55834;50.870;4.606;2023-12-22T09:01:54;2.47;;;1.63;;
68821;SDS011;55834;50.870;4.606;2023-12-22T09:04:20;3.35;;;1.75;;
68821;SDS011;55834;50.870;4.606;2023-12-22T09:06:47;3.30;;;2.15;;
68821;SDS011;55834;50.870;4.606;2023-12-22T09:09:14;4.55;;;1.50;;
68821;SDS011;55834;50.870;4.606;2023-12-22T09:11:40;3.67;;;1.65;;
68821;SDS011;55834;50.870;4.606;2023-12-22T09:14:05;1.80;;;1.67;;
68821;SDS011;55834;50.870;4.606;2023-12-22T09:16:34;7.03;;;1.83;;
68821;SDS011;55834;50.870;4.606;2023-12-22T09:19:01;2.63;;;2.17;;
68821;SDS011;55834;50.870;4.606;2023-12-22T09:21:27;6.18;;;2.20;;
68821;SDS011;55834;50.870;4.606;2023-12-22T09:23:53;2.90;;;1.42;;
68821;SDS011;55834;50.870;4.606;2023-12-22T09:26:18;3.80;;;2.85;;
68821;SDS011;55834;50.870;4.606;2023-12-22T09:28:44;5.45;;;1.95;;
68821;SDS011;55834;50.870;4.606;2023-12-22T09:31:10;1.95;;;1.83;;
68821;SDS011;55834;50.870;4.606;2023-12-22T09:33:37;4.50;;;2.53;;
68821;SDS011;55834;50.870;4.606;2023-12-22T09:36:04;4.88;;;2.20;;
68821;SDS011;55834;50.870;4.606;2023-12-22T09:38:30;4.65;;;4.25;;
68821;SDS011;55834;50.870;4.606;2023-12-22T09:40:56;8.10;;;2.17;;
68821;SDS011;55834;50.870;4.606;2023-12-22T09:43:22;1.65;;;1.55;;
68821;SDS011;55834;50.870;4.606;2023-12-22T09:45:49;4.13;;;1.63;;
68821;SDS011;55834;50.870;4.606;2023-12-22T09:48:15;2.88;;;1.30;;
68821;SDS011;55834;50.870;4.606;2023-12-22T09:50:43;3.08;;;1.90;;
68821;SDS011;55834;50.870;4.606;2023-12-22T09:53:10;3.65;;;1.50;;
68821;SDS011;55834;50.870;4.606;2023-12-22T09:55:37;1.92;;;1.73;;
68821;SDS011;55834;50.870;4.606;2023-12-22T09:58:04;2.28;;;0.85;;
68821;SDS011;55834;50.870;4.606;2023-12-22T10:00:31;6.47;;;1.67;;
68821;SDS011;55834;50.870;4.606;2023-12-22T10:02:58;1.02;;;0.98;;
68821;SDS011;55834;50.870;4.606;2023-12-22T10:05:23;2.05;;;0.98;;
68821;SDS011;55834;50.870;4.606;2023-12-22T10:07:49;6.85;;;2.20;;
68821;SDS011;55834;50.870;4.606;2023-12-22T10:10:15;3.13;;;0.82;;
68821;SDS011;55834;50.870;4.606;2023-12-22T10:12:42;3.05;;;1.27;;
68821;SDS011;55834;50.870;4.606;2023-12-22T10:15:09;1.98;;;1.05;;
68821;SDS011;55834;50.870;4.606;2023-12-22T10:17:37;2.63;;;0.60;;
68821;SDS011;55834;50.870;4.606;2023-12-22T10:20:03;5.78;;;1.27;;
68821;SDS011;55834;50.870;4.606;2023-12-22T10:22:29;1.73;;;0.57;;
68821;SDS011;55834;50.870;4.606;2023-12-22T10:24:54;4.53;;;2.10;;
68821;SDS011;55834;50.870;4.606;2023-12-22T10:27:20;2.50;;;1.42;;
68821;SDS011;55834;50.870;4.606;2023-12-22T10:29:54;1.88;;;0.40;;
68821;SDS011;55834;50.870;4.606;2023-12-22T10:32:21;2.35;;;0.80;;
68821;SDS011;55834;50.870;4.606;2023-12-22T10:34:47;3.13;;;0.70;;
68821;SDS011;55834;50.870;4.606;2023-12-22T10:37:13;1.65;;;0.68;;
68821;SDS011;55834;50.870;4.606;2023-12-22T10:39:39;1.85;;;1.02;;
68821;SDS011;55834;50.870;4.606;2023-12-22T10:42:05;3.38;;;0.73;;
68821;SDS011;55834;50.870;4.606;2023-12-22T10:44:32;3.47;;;0.77;;
68821;SDS011;55834;50.870;4.606;2023-12-22T10:46:58;0.60;;;0.60;;
68821;SDS011;55834;50.870;4.606;2023-12-22T10:49:25;4.78;;;0.90;;
68821;SDS011;55834;50.870;4.606;2023-12-22T10:51:50;2.83;;;0.73;;
68821;SDS011;55834;50.870;4.606;2023-12-22T10:54:17;0.98;;;0.77;;
68821;SDS011;55834;50.870;4.606;2023-12-22T10:56:44;3.53;;;1.00;;
68821;SDS011;55834;50.870;4.606;2023-12-22T10:59:10;1.05;;;0.77;;
68821;SDS011;55834;50.870;4.606;2023-12-22T11:01:36;0.77;;;0.70;;
68821;SDS011;55834;50.870;4.606;2023-12-22T11:04:06;3.80;;;1.08;;
68821;SDS011;55834;50.870;4.606;2023-12-22T11:06:36;2.40;;;0.98;;
68821;SDS011;55834;50.870;4.606;2023-12-22T11:09:08;2.05;;;0.80;;
68821;SDS011;55834;50.870;4.606;2023-12-22T11:11:38;2.15;;;0.80;;
68821;SDS011;55834;50.870;4.606;2023-12-22T11:14:05;3.03;;;1.48;;
68821;SDS011;55834;50.870;4.606;2023-12-22T11:16:32;1.70;;;1.00;;
68821;SDS011;55834;50.870;4.606;2023-12-22T11:18:59;2.70;;;1.17;;
68821;SDS011;55834;50.870;4.606;2023-12-22T11:21:25;1.83;;;0.90;;
68821;SDS011;55834;50.870;4.606;2023-12-22T11:23:51;2.20;;;0.80;;
68821;SDS011;55834;50.870;4.606;2023-12-22T11:26:18;1.10;;;0.60;;
68821;SDS011;55834;50.870;4.606;2023-12-22T11:28:45;2.15;;;0.88;;
68821;SDS011;55834;50.870;4.606;2023-12-22T11:31:12;1.95;;;0.98;;
68821;SDS011;55834;50.870;4.606;2023-12-22T11:33:39;3.35;;;1.77;;
68821;SDS011;55834;50.870;4.606;2023-12-22T11:36:08;1.45;;;0.60;;
68821;SDS011;55834;50.870;4.606;2023-12-22T11:38:34;4.75;;;0.65;;
68821;SDS011;55834;50.870;4.606;2023-12-22T11:41:00;1.17;;;0.60;;
68821;SDS011;55834;50.870;4.606;2023-12-22T11:43:28;1.85;;;0.70;;
68821;SDS011;55834;50.870;4.606;2023-12-22T11:45:54;0.52;;;0.30;;
68821;SDS011;55834;50.870;4.606;2023-12-22T11:48:21;4.65;;;0.90;;
68821;SDS011;55834;50.870;4.606;2023-12-22T11:50:47;0.52;;;0.32;;
68821;SDS011;55834;50.870;4.606;2023-12-22T11:53:23;1.25;;;0.73;;
68821;SDS011;55834;50.870;4.606;2023-12-22T11:55:59;1.65;;;0.85;;
68821;SDS011;55834;50.870;4.606;2023-12-22T11:58:32;2.13;;;0.57;;
68821;SDS011;55834;50.870;4.606;2023-12-22T12:01:02;3.33;;;1.02;;
68821;SDS011;55834;50.870;4.606;2023-12-22T12:03:31;0.93;;;0.60;;
68821;SDS011;55834;50.870;4.606;2023-12-22T12:08:50;0.65;;;0.50;;
68821;SDS011;55834;50.870;4.606;2023-12-22T12:11:22;1.75;;;0.60;;
68821;SDS011;55834;50.870;4.606;2023-12-22T12:13:48;2.28;;;0.50;;
68821;SDS011;55834;50.870;4.606;2023-12-22T12:16:15;2.70;;;0.77;;
68821;SDS011;55834;50.870;4.606;2023-12-22T12:18:44;6.93;;;1.30;;
68821;SDS011;55834;50.870;4.606;2023-12-22T12:21:10;2.75;;;0.70;;
68821;SDS011;55834;50.870;4.606;2023-12-22T12:23:36;0.90;;;0.77;;
68821;SDS011;55834;50.870;4.606;2023-12-22T12:26:03;1.60;;;0.50;;
68821;SDS011;55834;50.870;4.606;2023-12-22T12:28:32;3.13;;;0.98;;
68821;SDS011;55834;50.870;4.606;2023-12-22T12:31:00;4.00;;;0.73;;
68821;SDS011;55834;50.870;4.606;2023-12-22T12:33:27;1.25;;;0.50;;
68821;SDS011;55834;50.870;4.606;2023-12-22T12:35:57;3.78;;;0.75;;
68821;SDS011;55834;50.870;4.606;2023-12-22T12:38:28;3.05;;;0.40;;
68821;SDS011;55834;50.870;4.606;2023-12-22T12:41:04;1.25;;;0.47;;
68821;SDS011;55834;50.870;4.606;2023-12-22T12:43:31;1.55;;;0.80;;
68821;SDS011;55834;50.870;4.606;2023-12-22T12:46:06;3.42;;;0.40;;
68821;SDS011;55834;50.870;4.606;2023-12-22T12:48:31;2.70;;;0.40;;
68821;SDS011;55834;50.870;4.606;2023-12-22T12:51:03;2.93;;;1.03;;
68821;SDS011;55834;50.870;4.606;2023-12-22T12:53:32;1.17;;;0.75;;
68821;SDS011;55834;50.870;4.606;2023-12-22T12:55:59;1.35;;;0.32;;
68821;SDS011;55834;50.870;4.606;2023-12-22T12:58:31;1.55;;;0.47;;
68821;SDS011;55834;50.870;4.606;2023-12-22T13:01:07;1.55;;;0.50;;
68821;SDS011;55834;50.870;4.606;2023-12-22T13:03:33;2.47;;;0.43;;
68821;SDS011;55834;50.870;4.606;2023-12-22T13:06:05;0.60;;;0.43;;
68821;SDS011;55834;50.870;4.606;2023-12-22T13:08:32;3.05;;;0.75;;
68821;SDS011;55834;50.870;4.606;2023-12-22T13:11:00;5.13;;;0.95;;
68821;SDS011;55834;50.870;4.606;2023-12-22T13:13:26;0.90;;;0.28;;
68821;SDS011;55834;50.870;4.606;2023-12-22T13:15:52;2.88;;;0.60;;
68821;SDS011;55834;50.870;4.606;2023-12-22T13:18:17;1.15;;;0.90;;
68821;SDS011;55834;50.870;4.606;2023-12-22T13:20:43;4.43;;;0.85;;
68821;SDS011;55834;50.870;4.606;2023-12-22T13:23:08;1.15;;;0.40;;
68821;SDS011;55834;50.870;4.606;2023-12-22T13:25:40;3.88;;;0.88;;
68821;SDS011;55834;50.870;4.606;2023-12-22T13:28:05;3.63;;;0.70;;
68821;SDS011;55834;50.870;4.606;2023-12-22T13:30:39;3.35;;;0.55;;
68821;SDS011;55834;50.870;4.606;2023-12-22T13:33:09;6.85;;;1.63;;
68821;SDS011;55834;50.870;4.606;2023-12-22T13:35:35;9.43;;;1.52;;
68821;SDS011;55834;50.870;4.606;2023-12-22T13:38:05;2.97;;;1.38;;
68821;SDS011;55834;50.870;4.606;2023-12-22T13:40:31;1.95;;;0.73;;
68821;SDS011;55834;50.870;4.606;2023-12-22T13:42:57;3.00;;;0.50;;
68821;SDS011;55834;50.870;4.606;2023-12-22T13:45:24;2.28;;;1.05;;
68821;SDS011;55834;50.870;4.606;2023-12-22T13:47:50;0.77;;;0.28;;
68821;SDS011;55834;50.870;4.606;2023-12-22T13:50:16;1.45;;;0.57;;
68821;SDS011;55834;50.870;4.606;2023-12-22T13:52:42;2.65;;;0.40;;
68821;SDS011;55834;50.870;4.606;2023-12-22T13:55:16;3.50;;;0.90;;
68821;SDS011;55834;50.870;4.606;2023-12-22T13:57:43;1.45;;;0.47;;
68821;SDS011;55834;50.870;4.606;2023-12-22T14:02:44;3.00;;;0.60;;
68821;SDS011;55834;50.870;4.606;2023-12-22T14:05:09;1.08;;;0.30;;
68821;SDS011;55834;50.870;4.606;2023-12-22T14:07:35;1.45;;;0.57;;
68821;SDS011;55834;50.870;4.606;2023-12-22T14:10:07;3.80;;;0.70;;
68821;SDS011;55834;50.870;4.606;2023-12-22T14:12:33;1.88;;;0.68;;
68821;SDS011;55834;50.870;4.606;2023-12-22T14:14:59;1.10;;;0.47;;
68821;SDS011;55834;50.870;4.606;2023-12-22T14:17:24;2.15;;;0.77;;
68821;SDS011;55834;50.870;4.606;2023-12-22T14:19:50;2.90;;;0.75;;
68821;SDS011;55834;50.870;4.606;2023-12-22T14:22:15;2.63;;;0.28;;
68821;SDS011;55834;50.870;4.606;2023-12-22T14:24:42;5.70;;;1.58;;
68821;SDS011;55834;50.870;4.606;2023-12-22T14:27:07;1.95;;;0.90;;
68821;SDS011;55834;50.870;4.606;2023-12-22T14:29:32;3.05;;;1.25;;
68821;SDS011;55834;50.870;4.606;2023-12-22T14:32:00;2.63;;;1.55;;
68821;SDS011;55834;50.870;4.606;2023-12-22T14:34:25;3.67;;;1.40;;
68821;SDS011;55834;50.870;4.606;2023-12-22T14:36:51;6.95;;;0.85;;
68821;SDS011;55834;50.870;4.606;2023-12-22T14:39:16;1.37;;;1.10;;
68821;SDS011;55834;50.870;4.606;2023-12-22T14:41:41;3.63;;;0.70;;
68821;SDS011;55834;50.870;4.606;2023-12-22T14:44:10;4.03;;;1.00;;
68821;SDS011;55834;50.870;4.606;2023-12-22T14:46:39;6.22;;;1.52;;